createdAt,value
2024-05-09T00:00:52.596Z,100075.56
2024-05-09T00:04:56.646Z,100074.52
2024-05-09T00:08:34.589Z,100072.63
2024-05-09T00:12:11.068Z,100075.60
2024-05-09T00:15:48.075Z,100074.98
2024-05-09T00:19:28.227Z,100072.35
2024-05-09T00:23:06.515Z,100071.33
2024-05-09T00:26:39.350Z,100076.39
2024-05-09T00:30:31.029Z,100081.60
2024-05-09T00:34:01.171Z,100083.44
2024-05-09T00:37:39.091Z,100085.10
2024-05-09T00:41:17.130Z,100080.42
2024-05-09T00:44:54.148Z,100079.61
2024-05-09T00:48:32.938Z,100078.45
2024-05-09T00:52:10.334Z,100076.67
2024-05-09T00:55:46.425Z,100075.07
2024-05-09T00:59:24.639Z,100070.67
2024-05-09T01:03:03.039Z,100073.86
2024-05-09T01:06:40.498Z,100071.08
2024-05-09T01:10:21.279Z,100064.79
2024-05-09T01:13:54.515Z,100066.96
2024-05-09T01:17:32.689Z,100067.57
2024-05-09T01:21:11.395Z,100066.20
2024-05-09T01:24:48.635Z,100062.82
2024-05-09T01:28:23.296Z,100067.98
2024-05-09T01:32:07.311Z,100061.95
2024-05-09T01:35:45.056Z,100062.77
2024-05-09T01:39:21.146Z,100058.48
2024-05-09T01:43:00.389Z,100056.69
2024-05-09T01:46:38.088Z,100060.30
2024-05-09T01:50:16.657Z,100063.60
2024-05-09T01:53:49.910Z,100065.88
2024-05-09T01:57:34.420Z,100069.42
2024-05-09T02:01:10.784Z,100073.12
2024-05-09T02:04:47.820Z,100073.34
2024-05-09T02:08:32.117Z,100070.46
2024-05-09T02:12:09.782Z,100072.60
2024-05-09T02:15:44.449Z,100066.21
2024-05-09T02:19:28.446Z,100066.95
2024-05-09T02:23:06.218Z,100063.52
2024-05-09T02:26:41.276Z,100064.20
2024-05-09T02:30:30.013Z,100063.69
2024-05-09T02:33:59.260Z,100059.66
2024-05-09T02:37:33.670Z,100055.27
2024-05-09T02:41:17.578Z,100051.22
2024-05-09T02:44:51.998Z,100051.34
2024-05-09T02:48:32.464Z,100057.54
2024-05-09T02:52:19.614Z,100056.89
2024-05-09T02:55:50.671Z,100055.09
2024-05-09T02:59:35.187Z,100061.52
2024-05-09T03:03:14.377Z,100061.57
2024-05-09T03:06:46.614Z,100061.83
2024-05-09T03:10:35.950Z,100065.60
2024-05-09T03:14:05.318Z,100066.03
2024-05-09T03:17:49.364Z,100069.58
2024-05-09T03:21:26.845Z,100070.73
2024-05-09T03:25:04.876Z,100077.41
2024-05-09T03:28:44.916Z,100070.96
2024-05-09T03:32:18.598Z,100070.42
2024-05-09T03:35:56.623Z,100071.16
2024-05-09T03:39:35.683Z,100072.44
2024-05-09T03:43:12.854Z,100066.94
2024-05-09T03:46:51.061Z,100064.80
2024-05-09T03:50:33.661Z,100064.59
2024-05-09T03:54:07.728Z,100063.64
2024-05-09T03:57:42.562Z,100061.46
2024-05-09T04:01:20.416Z,100054.25
2024-05-09T04:04:57.891Z,100055.50
2024-05-09T04:08:37.327Z,100060.70
2024-05-09T04:12:15.627Z,100058.61
2024-05-09T04:15:51.191Z,100052.08
2024-05-09T04:19:30.588Z,100058.29
2024-05-09T04:23:12.010Z,100062.52
2024-05-09T04:26:45.726Z,100065.21
2024-05-09T04:30:33.672Z,100061.05
2024-05-09T04:33:59.747Z,100063.73
2024-05-09T04:37:39.463Z,100061.38
2024-05-09T04:41:17.251Z,100062.27
2024-05-09T04:44:56.427Z,100063.77
2024-05-09T04:48:30.550Z,100064.40
2024-05-09T05:16:24.748Z,100050.45
2024-05-09T05:19:17.561Z,100044.36
2024-05-09T05:22:53.645Z,100038.90
2024-05-09T05:26:34.033Z,100041.73
2024-05-09T05:30:14.767Z,100042.11
2024-05-09T05:33:48.757Z,100043.19
2024-05-09T05:37:24.663Z,100039.20
2024-05-09T05:41:02.345Z,100040.59
2024-05-09T05:44:41.367Z,100040.60
2024-05-09T05:48:18.402Z,100041.70
2024-05-09T05:51:55.341Z,100043.23
2024-05-09T05:55:34.516Z,100049.29
2024-05-09T05:59:15.060Z,100044.90
2024-05-09T06:02:48.556Z,100043.30
2024-05-09T06:06:26.156Z,100041.61
2024-05-09T06:10:07.256Z,100044.95
2024-05-09T06:13:43.833Z,100046.17
2024-05-09T06:17:19.418Z,100049.37
2024-05-09T06:20:57.312Z,100054.73
2024-05-09T06:24:42.845Z,100053.85
2024-05-09T06:28:11.087Z,100055.77
2024-05-09T06:31:54.404Z,100053.49
2024-05-09T06:35:31.278Z,100051.38
2024-05-09T06:39:10.098Z,100049.80
2024-05-09T06:42:47.927Z,100056.15
2024-05-09T06:46:25.221Z,100055.44
2024-05-09T06:50:03.529Z,100061.65
2024-05-09T06:53:40.762Z,100058.36
2024-05-09T06:57:19.377Z,100055.99
2024-05-09T07:00:55.006Z,100049.66
2024-05-09T07:04:32.958Z,100053.85
2024-05-09T07:08:12.116Z,100049.16
2024-05-09T07:11:50.321Z,100050.05
2024-05-09T07:15:27.407Z,100049.23
2024-05-09T07:19:03.744Z,100049.46
2024-05-09T07:22:41.837Z,100051.70
2024-05-09T07:26:20.976Z,100049.25
2024-05-09T07:29:58.354Z,100050.42
2024-05-09T07:33:32.955Z,100049.52
2024-05-09T07:37:15.506Z,100055.18
2024-05-09T07:40:54.898Z,100056.80
2024-05-09T07:44:31.647Z,100053.85
2024-05-09T07:49:44.502Z,100055.53
2024-05-09T07:53:21.717Z,100050.15
2024-05-09T07:55:32.601Z,100049.90
2024-05-09T07:59:05.911Z,100053.97
2024-05-09T08:02:43.725Z,100056.89
2024-05-09T08:06:37.546Z,100049.42
2024-05-09T08:09:57.005Z,100047.51
2024-05-09T08:13:44.673Z,100044.63
2024-05-09T08:17:16.504Z,100042.39
2024-05-09T08:20:48.428Z,100044.89
2024-05-09T08:24:30.812Z,100045.09
2024-05-09T08:28:06.964Z,100045.89
2024-05-09T08:31:59.470Z,100042.59
2024-05-09T08:35:29.088Z,100042.87
2024-05-09T08:39:04.667Z,100048.28
2024-05-09T08:42:52.572Z,100053.58
2024-05-09T08:46:26.688Z,100049.64
2024-05-09T08:50:03.147Z,100050.53
2024-05-09T08:53:47.937Z,100051.42
2024-05-09T08:57:25.767Z,100053.85
2024-05-09T09:01:00.194Z,100047.38
2024-05-09T09:04:37.920Z,100050.69
2024-05-09T09:08:14.630Z,100053.87
2024-05-09T09:22:15.712Z,100053.95
2024-05-09T09:25:12.852Z,100056.27
2024-05-09T09:28:44.907Z,100056.96
2024-05-09T09:32:29.048Z,100054.38
2024-05-09T09:35:54.535Z,100050.93
2024-05-09T09:39:49.037Z,100047.21
2024-05-09T09:43:19.448Z,100043.73
2024-05-09T09:47:04.912Z,100039.92
2024-05-09T09:50:41.200Z,100037.60
2024-05-09T09:54:21.595Z,100043.31
2024-05-09T09:57:46.490Z,100041.42
2024-05-09T10:01:21.233Z,100038.73
2024-05-09T10:05:12.546Z,100033.08
2024-05-09T10:08:54.075Z,100031.05
2024-05-09T10:12:22.948Z,100038.63
2024-05-09T10:15:58.329Z,100040.93
2024-05-09T10:19:48.867Z,100038.45
2024-05-09T10:23:27.349Z,100036.98
2024-05-09T10:27:04.008Z,100031.57
2024-05-09T10:30:35.921Z,100032.67
2024-05-09T10:34:17.495Z,100033.89
2024-05-09T10:37:53.330Z,100020.35
2024-05-09T10:41:23.825Z,100019.39
2024-05-09T10:45:08.904Z,100007.98
2024-05-09T10:48:41.333Z,100001.13
2024-05-09T11:02:50.529Z,99998.15
2024-05-09T11:05:42.754Z,100000.83
2024-05-09T11:09:29.449Z,100004.33
2024-05-09T11:12:59.316Z,99996.30
2024-05-09T11:16:43.323Z,99992.36
2024-05-09T11:20:37.327Z,99983.73
2024-05-09T11:24:00.610Z,99982.29
2024-05-09T11:27:27.928Z,99976.41
2024-05-09T11:31:12.095Z,99970.98
2024-05-09T11:34:49.217Z,99982.27
2024-05-09T11:38:27.646Z,99974.67
2024-05-09T11:42:00.696Z,99971.95
2024-05-09T11:45:40.517Z,99983.30
2024-05-09T11:49:27.154Z,99984.84
2024-05-09T11:53:00.534Z,99973.52
2024-05-09T11:56:32.414Z,99961.25
2024-05-09T12:00:14.801Z,99953.42
2024-05-09T12:03:45.605Z,99952.48
2024-05-09T12:07:27.694Z,99948.77
2024-05-09T12:11:05.288Z,99946.77
2024-05-09T12:14:36.125Z,99949.02
2024-05-09T12:18:28.177Z,99951.05
2024-05-09T12:22:08.530Z,99947.04
2024-05-09T12:25:35.768Z,99946.67
2024-05-09T12:29:09.738Z,99930.91
2024-05-09T12:33:11.852Z,99920.63
2024-05-09T12:36:28.360Z,99912.92
2024-05-09T12:40:18.568Z,99919.61
2024-05-09T12:43:51.545Z,99919.84
2024-05-09T12:47:26.215Z,99913.95
2024-05-09T12:51:05.728Z,99916.16
2024-05-09T12:54:45.506Z,99915.10
2024-05-09T12:58:21.713Z,99911.92
2024-05-09T13:01:59.561Z,99909.92
2024-05-09T13:05:47.343Z,99906.68
2024-05-09T13:09:13.896Z,99900.11
2024-05-09T13:12:52.291Z,99898.56
2024-05-09T13:16:30.815Z,99889.98
2024-05-09T13:20:09.281Z,99877.66
2024-05-09T13:34:10.819Z,99867.23
2024-05-09T13:37:01.642Z,99862.80
2024-05-09T13:40:39.903Z,99863.51
2024-05-09T13:44:18.995Z,99854.73
2024-05-09T13:47:56.753Z,99848.98
2024-05-09T13:51:32.743Z,99844.41
2024-05-09T13:55:12.063Z,99842.34
2024-05-09T13:58:46.548Z,99831.38
2024-05-09T14:02:32.275Z,99835.24
2024-05-09T14:06:11.299Z,99831.42
2024-05-09T14:09:46.982Z,99826.48
2024-05-09T14:13:21.966Z,99822.95
2024-05-09T14:16:59.894Z,99821.02
2024-05-09T14:20:39.262Z,99812.79
2024-05-09T14:24:15.151Z,99814.44
2024-05-09T14:27:52.621Z,99809.73
2024-05-09T14:31:30.564Z,99808.09
2024-05-09T14:35:08.246Z,99805.33
2024-05-09T14:38:46.015Z,99808.20
2024-05-09T14:42:42.676Z,99805.09
2024-05-09T14:46:01.726Z,99811.81
2024-05-09T14:49:42.035Z,99802.11
2024-05-09T14:53:17.223Z,99795.94
2024-05-09T14:56:54.824Z,99789.11
2024-05-09T15:00:35.947Z,99778.59
2024-05-09T15:04:10.081Z,99775.77
2024-05-09T15:07:49.400Z,99776.92
2024-05-09T15:11:25.423Z,99772.31
2024-05-09T15:15:03.999Z,99762.46
2024-05-09T15:18:44.053Z,99765.10
2024-05-09T15:22:20.339Z,99764.14
2024-05-09T15:25:55.393Z,99761.52
2024-05-09T15:29:32.196Z,99757.41
2024-05-09T15:33:16.603Z,99757.02
2024-05-09T15:36:52.375Z,99752.95
2024-05-09T15:40:36.110Z,99753.98
2024-05-09T15:44:20.438Z,99745.30
2024-05-09T16:39:58.176Z,99715.70
2024-05-09T16:42:48.449Z,99718.09
2024-05-09T16:46:24.747Z,99719.69
2024-05-09T16:50:10.694Z,99713.71
2024-05-09T16:53:44.830Z,99713.90
2024-05-09T16:57:20.579Z,99710.82
2024-05-09T17:01:04.781Z,99714.92
2024-05-09T17:04:46.532Z,99715.88
2024-05-09T17:08:20.419Z,99714.12
2024-05-09T17:12:20.778Z,99709.70
2024-05-09T17:15:43.191Z,99715.20
2024-05-09T17:19:20.039Z,99714.64
2024-05-09T17:23:14.659Z,99715.04
2024-05-09T18:32:18.146Z,99726.46
2024-05-09T18:35:10.899Z,99733.80
2024-05-09T18:38:52.034Z,99736.36
2024-05-09T18:42:24.526Z,99741.15
2024-05-09T18:46:03.945Z,99746.25
2024-05-09T18:49:40.205Z,99744.45
2024-05-09T18:53:19.453Z,99747.50
2024-05-09T18:56:55.483Z,99750.54
2024-05-09T19:00:37.081Z,99754.33
2024-05-09T19:04:11.263Z,99755.33
2024-05-09T19:07:50.431Z,99762.11
2024-05-09T19:11:26.381Z,99760.20
2024-05-09T19:15:04.447Z,99763.67
2024-05-09T19:18:42.129Z,99765.88
2024-05-09T19:22:22.087Z,99773.71
2024-05-09T19:25:59.159Z,99774.20
2024-05-09T19:29:35.466Z,99784.88
2024-05-09T19:33:13.851Z,99787.61
2024-05-09T19:37:01.274Z,99789.52
2024-05-09T19:40:36.831Z,99792.15
2024-05-09T19:44:11.852Z,99792.48
2024-05-09T19:47:48.409Z,99796.10
2024-05-09T19:51:33.122Z,99799.05
2024-05-09T19:55:06.668Z,99800.95
2024-05-09T19:58:49.283Z,99799.69
2024-05-09T20:02:26.669Z,99804.09
2024-05-09T20:06:06.230Z,99806.73
2024-05-09T20:09:43.885Z,99808.98
2024-05-09T20:13:18.383Z,99807.39
2024-05-09T20:17:01.213Z,99809.73
2024-05-09T20:20:40.341Z,99807.54
2024-05-09T20:24:26.863Z,99810.91
2024-05-09T20:28:01.493Z,99807.86
2024-05-09T20:31:45.178Z,99806.13
2024-05-09T20:35:19.619Z,99809.59
2024-05-09T20:39:03.274Z,99810.58
2024-05-09T20:42:43.952Z,99807.09
2024-05-09T20:46:17.619Z,99809.92
2024-05-09T20:49:55.211Z,99809.21
2024-05-09T20:53:34.374Z,99811.91
2024-05-09T20:57:12.103Z,99807.38
2024-05-09T21:00:46.658Z,99808.28
2024-05-09T21:04:31.855Z,99809.00
2024-05-09T21:08:09.030Z,99805.02
2024-05-09T21:11:47.370Z,99808.61
2024-05-09T21:15:20.636Z,99811.10
2024-05-09T21:19:09.090Z,99815.75
2024-05-09T21:22:38.615Z,99819.22
2024-05-09T21:26:23.690Z,99818.98
2024-05-09T21:29:59.932Z,99814.96
2024-05-09T21:33:38.011Z,99815.84
2024-05-09T21:37:12.329Z,99814.31
2024-05-09T21:40:56.915Z,99812.09
2024-05-09T21:44:34.008Z,99812.68
2024-05-09T21:48:09.013Z,99814.45
2024-05-09T21:51:52.937Z,99815.38
2024-05-09T21:55:30.524Z,99808.73
2024-05-09T21:59:04.573Z,99813.46
2024-05-09T22:02:47.017Z,99815.02
2024-05-09T22:06:22.434Z,99812.02
2024-05-09T22:10:06.401Z,99813.05
2024-05-09T22:13:40.394Z,99812.44
2024-05-09T22:17:24.362Z,99810.78
2024-05-09T22:21:01.892Z,99808.38
2024-05-09T22:24:38.194Z,99807.00
2024-05-09T22:28:16.131Z,99815.33
2024-05-09T22:31:55.507Z,99810.84
2024-05-09T22:35:37.857Z,99809.27
2024-05-09T22:39:19.115Z,99808.05
2024-05-09T22:42:45.075Z,99807.96
2024-05-09T22:46:25.662Z,99808.81
2024-05-09T22:50:12.851Z,99806.45
2024-05-09T22:53:47.459Z,99806.05
2024-05-09T22:57:25.054Z,99804.36
2024-05-09T23:00:59.432Z,99802.92
2024-05-09T23:04:43.250Z,99798.75
2024-05-09T23:08:21.630Z,99795.79
2024-05-09T23:11:57.311Z,99791.44
2024-05-09T23:15:33.036Z,99787.62
2024-05-09T23:19:17.138Z,99789.09
2024-05-09T23:22:54.615Z,99782.63
2024-05-09T23:26:28.689Z,99783.77
2024-05-09T23:30:12.600Z,99779.04
2024-05-09T23:33:50.549Z,99779.05
2024-05-09T23:37:28.466Z,99777.02
2024-05-09T23:41:02.235Z,99772.05
2024-05-09T23:44:46.273Z,99769.69
2024-05-09T23:48:22.561Z,99765.81
2024-05-09T23:52:01.363Z,99760.47
2024-05-09T23:55:39.775Z,99756.03
2024-05-09T23:59:17.122Z,99758.94
